Time;durP1;ratioP1;P1;durP2;ratioP2;P2;SDS_P1;SDS_P2;PMS_P1;PMS_P2;Temp;Humidity;BMP_temperature;BMP_pressure;BME280_temperature;BME280_humidity;BME280_pressure;Samples;Min_cycle;Max_cycle;Signal;HPM_P1;HPM_P2
2023/12/07 00:02:02;;;;;;;0.40;0.40;;;;;;;;;;5089227;28;20054;-78
2023/12/07 00:04:28;;;;;;;1.33;1.23;;;;;;;;;;5088438;28;20024;-76
2023/12/07 00:06:54;;;;;;;3.70;1.17;;;;;;;;;;5088713;28;20077;-75
2023/12/07 00:09:19;;;;;;;5.95;5.50;;;;;;;;;;5088721;28;20027;-75
2023/12/07 00:11:45;;;;;;;4.05;2.95;;;;;;;;;;5087657;28;20043;-74
2023/12/07 00:14:12;;;;;;;0.32;0.32;;;;;;;;;;5089021;28;20032;-75
2023/12/07 00:16:37;;;;;;;1.58;1.00;;;;;;;;;;5070053;28;20055;-74
2023/12/07 00:19:03;;;;;;;1.08;1.08;;;;;;;;;;5088593;28;20028;-76
2023/12/07 00:21:29;;;;;;;1.55;1.08;;;;;;;;;;5088330;28;20020;-76
2023/12/07 00:23:55;;;;;;;0.38;0.38;;;;;;;;;;5088720;28;20031;-75
2023/12/07 00:26:21;;;;;;;0.90;0.90;;;;;;;;;;5088511;28;20028;-75
2023/12/07 00:28:48;;;;;;;0.20;0.20;;;;;;;;;;5088725;28;20585;-74
2023/12/07 00:31:14;;;;;;;2.15;1.50;;;;;;;;;;5071269;28;20036;-73
2023/12/07 00:33:40;;;;;;;0.90;0.82;;;;;;;;;;5071052;28;20028;-75
2023/12/07 00:36:06;;;;;;;0.15;0.15;;;;;;;;;;5089122;28;20093;-75
2023/12/07 00:38:32;;;;;;;2.70;0.65;;;;;;;;;;5089105;28;20054;-74
2023/12/07 00:40:58;;;;;;;0.10;0.10;;;;;;;;;;5071039;28;20458;-74
2023/12/07 00:43:24;;;;;;;0.50;0.50;;;;;;;;;;5088690;28;20028;-74
2023/12/07 00:45:50;;;;;;;0.88;0.45;;;;;;;;;;5087777;28;20361;-74
2023/12/07 00:48:17;;;;;;;0.10;0.10;;;;;;;;;;5087732;28;20024;-76
2023/12/07 00:50:43;;;;;;;1.35;1.23;;;;;;;;;;5088835;28;20157;-75
2023/12/07 00:53:09;;;;;;;1.08;0.98;;;;;;;;;;5088907;28;20039;-74
2023/12/07 00:55:36;;;;;;;0.10;0.10;;;;;;;;;;5089338;28;20118;-75
2023/12/07 00:58:02;;;;;;;0.30;0.30;;;;;;;;;;5088106;28;20042;-73
2023/12/07 01:00:28;;;;;;;0.10;0.10;;;;;;;;;;5088086;28;20419;-77
2023/12/07 01:02:53;;;;;;;0.10;0.10;;;;;;;;;;5088543;28;20024;-76
2023/12/07 01:05:20;;;;;;;0.10;0.10;;;;;;;;;;5087387;28;20062;-75
2023/12/07 01:07:46;;;;;;;1.33;0.90;;;;;;;;;;5087765;28;20093;-76
2023/12/07 01:10:11;;;;;;;0.10;0.10;;;;;;;;;;5069895;28;20024;-76
2023/12/07 01:12:37;;;;;;;0.10;0.10;;;;;;;;;;5088047;28;20043;-75
2023/12/07 01:15:03;;;;;;;0.10;0.10;;;;;;;;;;5069842;28;20028;-75
2023/12/07 01:17:29;;;;;;;0.10;0.10;;;;;;;;;;5087489;28;20032;-75
2023/12/07 01:19:55;;;;;;;0.10;0.10;;;;;;;;;;5087547;28;20040;-77
2023/12/07 01:22:21;;;;;;;0.10;0.10;;;;;;;;;;5087613;28;20081;-77
2023/12/07 01:24:47;;;;;;;1.17;1.10;;;;;;;;;;5087527;28;20071;-76
2023/12/07 01:27:12;;;;;;;0.32;0.32;;;;;;;;;;5089591;28;20065;-76
2023/12/07 01:29:38;;;;;;;0.10;0.10;;;;;;;;;;5089362;28;20537;-74
2023/12/07 01:32:05;;;;;;;0.15;0.15;;;;;;;;;;5089799;28;20089;-74
2023/12/07 01:34:32;;;;;;;0.10;0.10;;;;;;;;;;5089265;28;20034;-73
2023/12/07 01:36:58;;;;;;;5.55;2.78;;;;;;;;;;5090293;28;20046;-75
2023/12/07 01:39:23;;;;;;;0.73;0.52;;;;;;;;;;5089529;28;20020;-75
2023/12/07 01:41:50;;;;;;;0.28;0.28;;;;;;;;;;5089301;28;20028;-75
2023/12/07 01:44:16;;;;;;;4.13;3.70;;;;;;;;;;5089582;28;20058;-75
2023/12/07 01:46:42;;;;;;;0.10;0.10;;;;;;;;;;5089880;28;20028;-75
2023/12/07 01:49:08;;;;;;;0.20;0.20;;;;;;;;;;5089233;28;20048;-76
2023/12/07 01:51:34;;;;;;;0.30;0.30;;;;;;;;;;5089165;28;20030;-72
2023/12/07 01:54:00;;;;;;;0.10;0.10;;;;;;;;;;5071484;28;20115;-74
2023/12/07 01:56:26;;;;;;;0.60;0.60;;;;;;;;;;5089151;28;20039;-75
2023/12/07 01:58:52;;;;;;;0.85;0.63;;;;;;;;;;5089173;28;20028;-75
2023/12/07 02:01:18;;;;;;;0.20;0.20;;;;;;;;;;5089232;28;20253;-74
2023/12/07 02:03:44;;;;;;;0.20;0.20;;;;;;;;;;5089056;28;20039;-75
2023/12/07 02:06:10;;;;;;;1.85;1.08;;;;;;;;;;5089187;28;20028;-74
2023/12/07 02:08:40;;;;;;;0.20;0.20;;;;;;;;;;5089068;28;20467;-75
2023/12/07 02:11:10;;;;;;;0.75;0.75;;;;;;;;;;5071351;28;20028;-75
2023/12/07 02:13:37;;;;;;;3.20;0.75;;;;;;;;;;5093163;28;20028;-76
2023/12/07 02:16:07;;;;;;;0.10;0.10;;;;;;;;;;5093104;28;20024;-75
2023/12/07 02:18:47;;;;;;;0.63;0.63;;;;;;;;;;5093287;28;20089;-74
2023/12/07 02:21:13;;;;;;;;;;;;;;;;;;5093554;28;20357;-75
2023/12/07 02:23:39;;;;;;;0.30;0.30;;;;;;;;;;5093148;28;19908;-75
2023/12/07 02:26:06;;;;;;;0.10;0.10;;;;;;;;;;5071626;28;20424;-75
2023/12/07 02:28:32;;;;;;;0.40;0.40;;;;;;;;;;5073065;28;20020;-74
2023/12/07 02:30:58;;;;;;;0.10;0.10;;;;;;;;;;5093462;28;20024;-73
2023/12/07 02:33:24;;;;;;;0.60;0.60;;;;;;;;;;5093151;28;20495;-74
2023/12/07 02:35:50;;;;;;;0.10;0.10;;;;;;;;;;5095340;28;20027;-75
2023/12/07 02:38:16;;;;;;;0.40;0.40;;;;;;;;;;5096509;28;20028;-74
2023/12/07 02:40:44;;;;;;;0.10;0.10;;;;;;;;;;5096452;28;20035;-75
2023/12/07 02:43:10;;;;;;;0.40;0.40;;;;;;;;;;5096415;28;20483;-74
2023/12/07 02:45:36;;;;;;;0.65;0.52;;;;;;;;;;5096402;28;20029;-75
2023/12/07 02:48:02;;;;;;;0.10;0.10;;;;;;;;;;5078392;28;20036;-74
2023/12/07 02:50:27;;;;;;;2.28;1.33;;;;;;;;;;5096320;28;20063;-74
2023/12/07 02:52:53;;;;;;;0.10;0.10;;;;;;;;;;5096518;28;20108;-75
2023/12/07 02:55:19;;;;;;;0.17;0.17;;;;;;;;;;5096928;28;20022;-76
2023/12/07 02:57:46;;;;;;;0.10;0.10;;;;;;;;;;5096653;28;20387;-74
2023/12/07 03:00:14;;;;;;;0.10;0.10;;;;;;;;;;5096858;28;20028;-75
2023/12/07 03:02:40;;;;;;;13.30;5.53;;;;;;;;;;5096419;28;20028;-75
2023/12/07 03:05:06;;;;;;;0.82;0.77;;;;;;;;;;5096377;28;20020;-74
2023/12/07 03:07:33;;;;;;;0.10;0.10;;;;;;;;;;5096079;28;20440;-74
2023/12/07 03:09:58;;;;;;;0.15;0.15;;;;;;;;;;5096067;28;20021;-75
2023/12/07 03:12:24;;;;;;;0.10;0.10;;;;;;;;;;5095843;28;20085;-74
2023/12/07 03:14:50;;;;;;;0.52;0.47;;;;;;;;;;5096135;28;20046;-74
2023/12/07 03:17:15;;;;;;;0.10;0.10;;;;;;;;;;5096081;28;20036;-74
2023/12/07 03:19:41;;;;;;;1.08;1.08;;;;;;;;;;5096069;28;20024;-74
2023/12/07 03:22:08;;;;;;;0.20;0.20;;;;;;;;;;5096029;28;20035;-75
2023/12/07 03:24:39;;;;;;;0.10;0.10;;;;;;;;;;5095941;28;20051;-75
2023/12/07 03:27:05;;;;;;;1.65;1.00;;;;;;;;;;5095632;28;20083;-74
2023/12/07 03:29:31;;;;;;;0.10;0.10;;;;;;;;;;5095676;28;20056;-75
2023/12/07 03:31:57;;;;;;;0.20;0.20;;;;;;;;;;5095561;28;20024;-76
2023/12/07 03:34:23;;;;;;;3.22;3.03;;;;;;;;;;5095419;28;20031;-74
2023/12/07 03:36:49;;;;;;;0.40;0.40;;;;;;;;;;5095471;28;20471;-74
2023/12/07 03:39:15;;;;;;;0.10;0.10;;;;;;;;;;5095397;28;20111;-74
2023/12/07 03:41:41;;;;;;;0.10;0.10;;;;;;;;;;5095342;28;20102;-75
2023/12/07 03:44:07;;;;;;;0.10;0.10;;;;;;;;;;5095359;28;20052;-75
2023/12/07 03:46:33;;;;;;;0.17;0.15;;;;;;;;;;5094108;28;20040;-75
2023/12/07 03:48:59;;;;;;;0.20;0.20;;;;;;;;;;5095057;28;20044;-77
2023/12/07 03:51:26;;;;;;;0.10;0.10;;;;;;;;;;5095415;28;20028;-77
2023/12/07 03:53:52;;;;;;;2.45;2.17;;;;;;;;;;5077118;28;20085;-78
2023/12/07 03:56:27;;;;;;;0.10;0.10;;;;;;;;;;5095353;28;20028;-77
2023/12/07 03:58:53;;;;;;;0.10;0.10;;;;;;;;;;5095226;28;20047;-77
2023/12/07 04:01:23;;;;;;;0.32;0.32;;;;;;;;;;5095165;28;20020;-76
2023/12/07 04:03:49;;;;;;;0.10;0.10;;;;;;;;;;5057334;28;20532;-76
2023/12/07 04:06:16;;;;;;;0.10;0.10;;;;;;;;;;5070928;28;20494;-77
2023/12/07 04:08:42;;;;;;;0.10;0.10;;;;;;;;;;5070671;28;20236;-76
2023/12/07 04:11:08;;;;;;;0.00;0.00;;;;;;;;;;5053157;28;20036;-76
2023/12/07 04:13:34;;;;;;;0.40;0.40;;;;;;;;;;5071193;28;20472;-77
2023/12/07 04:16:00;;;;;;;0.10;0.10;;;;;;;;;;5070518;28;20029;-77
2023/12/07 04:18:26;;;;;;;0.10;0.10;;;;;;;;;;5070279;28;20469;-76
2023/12/07 04:20:51;;;;;;;0.10;0.10;;;;;;;;;;5070749;28;20103;-77
2023/12/07 04:23:17;;;;;;;0.10;0.10;;;;;;;;;;5070440;28;20077;-76
2023/12/07 04:25:43;;;;;;;0.10;0.10;;;;;;;;;;5070230;28;20426;-75
2023/12/07 04:28:09;;;;;;;0.10;0.10;;;;;;;;;;5070257;28;20047;-75
2023/12/07 04:30:35;;;;;;;0.10;0.10;;;;;;;;;;5070303;28;20066;-76
2023/12/07 04:33:01;;;;;;;0.17;0.17;;;;;;;;;;5070400;28;20059;-76
2023/12/07 04:35:28;;;;;;;0.10;0.10;;;;;;;;;;5070197;28;20029;-75
2023/12/07 04:37:54;;;;;;;0.10;0.10;;;;;;;;;;5069887;28;20041;-76
2023/12/07 04:40:19;;;;;;;0.10;0.10;;;;;;;;;;5052163;28;20024;-75
2023/12/07 04:42:45;;;;;;;0.10;0.10;;;;;;;;;;5070393;28;20503;-73
2023/12/07 04:45:12;;;;;;;0.10;0.10;;;;;;;;;;5052172;28;20039;-77
2023/12/07 04:47:37;;;;;;;0.10;0.10;;;;;;;;;;5035338;28;20115;-77
2023/12/07 04:50:03;;;;;;;0.10;0.10;;;;;;;;;;5069940;28;20131;-77
2023/12/07 04:52:29;;;;;;;0.10;0.10;;;;;;;;;;5051951;28;20032;-80
2023/12/07 04:54:55;;;;;;;0.10;0.10;;;;;;;;;;5070034;28;20029;-77
2023/12/07 04:57:21;;;;;;;0.10;0.10;;;;;;;;;;5069457;28;20032;-75
2023/12/07 04:59:46;;;;;;;1.17;1.08;;;;;;;;;;5070151;28;20031;-74
2023/12/07 05:02:19;;;;;;;0.10;0.10;;;;;;;;;;5070451;28;20027;-74
2023/12/07 05:04:45;;;;;;;0.08;0.08;;;;;;;;;;5069729;28;20025;-74
2023/12/07 05:07:14;;;;;;;0.10;0.10;;;;;;;;;;5069783;28;20039;-74
2023/12/07 05:09:40;;;;;;;0.10;0.10;;;;;;;;;;5069273;28;20036;-73
2023/12/07 05:12:06;;;;;;;0.10;0.10;;;;;;;;;;5051600;28;20127;-75
2023/12/07 05:14:32;;;;;;;0.10;0.10;;;;;;;;;;5051935;28;20123;-76
2023/12/07 05:16:57;;;;;;;0.10;0.10;;;;;;;;;;5051532;28;20422;-75
2023/12/07 05:19:23;;;;;;;0.10;0.10;;;;;;;;;;5069538;28;20025;-75
2023/12/07 05:21:49;;;;;;;0.10;0.10;;;;;;;;;;5069617;28;20388;-77
2023/12/07 05:24:15;;;;;;;0.10;0.10;;;;;;;;;;5069722;28;20024;-75
2023/12/07 05:26:41;;;;;;;0.10;0.10;;;;;;;;;;5069771;28;20541;-76
2023/12/07 05:29:07;;;;;;;0.10;0.10;;;;;;;;;;5081849;28;20024;-75
2023/12/07 05:31:33;;;;;;;0.10;0.10;;;;;;;;;;5089513;28;20039;-74
2023/12/07 05:33:59;;;;;;;0.10;0.10;;;;;;;;;;5089471;28;20100;-75
2023/12/07 05:36:26;;;;;;;0.10;0.10;;;;;;;;;;5089516;28;20040;-75
2023/12/07 05:38:51;;;;;;;0.10;0.10;;;;;;;;;;5071448;28;20036;-76
2023/12/07 05:41:17;;;;;;;0.10;0.10;;;;;;;;;;5089582;28;20475;-75
2023/12/07 05:43:43;;;;;;;0.10;0.10;;;;;;;;;;5089979;28;20036;-75
2023/12/07 05:46:09;;;;;;;0.13;0.13;;;;;;;;;;5089899;28;20390;-78
2023/12/07 05:48:35;;;;;;;0.10;0.10;;;;;;;;;;5089794;28;20532;-75
2023/12/07 05:51:04;;;;;;;0.10;0.10;;;;;;;;;;5089278;28;20032;-75
2023/12/07 05:53:32;;;;;;;0.30;0.30;;;;;;;;;;5071429;28;20032;-75
2023/12/07 05:55:58;;;;;;;0.10;0.10;;;;;;;;;;5089486;28;20025;-75
2023/12/07 05:58:24;;;;;;;0.10;0.10;;;;;;;;;;5089211;28;20043;-74
2023/12/07 06:00:50;;;;;;;0.10;0.10;;;;;;;;;;5089360;28;20104;-76
2023/12/07 06:03:16;;;;;;;0.10;0.10;;;;;;;;;;5089194;28;20110;-73
2023/12/07 06:05:43;;;;;;;0.10;0.10;;;;;;;;;;5089612;28;20430;-74
2023/12/07 06:08:09;;;;;;;0.10;0.10;;;;;;;;;;5089571;28;20038;-77
2023/12/07 06:10:35;;;;;;;0.10;0.10;;;;;;;;;;5092346;28;20028;-76
2023/12/07 06:13:01;;;;;;;0.10;0.10;;;;;;;;;;5075099;28;20031;-77
2023/12/07 06:15:27;;;;;;;0.10;0.10;;;;;;;;;;5074577;28;20782;-76
2023/12/07 06:17:54;;;;;;;0.10;0.10;;;;;;;;;;5092448;28;20114;-75
2023/12/07 06:20:20;;;;;;;0.10;0.10;;;;;;;;;;5093046;28;20031;-76
2023/12/07 06:22:46;;;;;;;0.10;0.10;;;;;;;;;;5093489;28;20084;-74
2023/12/07 06:25:11;;;;;;;1.35;0.95;;;;;;;;;;5093317;28;20016;-77
2023/12/07 06:27:37;;;;;;;0.10;0.10;;;;;;;;;;5075269;28;20031;-74
2023/12/07 06:30:07;;;;;;;0.10;0.10;;;;;;;;;;5092574;28;20016;-74
2023/12/07 06:32:33;;;;;;;0.10;0.10;;;;;;;;;;5075131;28;20036;-75
2023/12/07 06:35:00;;;;;;;0.10;0.10;;;;;;;;;;5092557;28;20101;-75
2023/12/07 06:37:26;;;;;;;1.27;0.38;;;;;;;;;;5092525;28;20032;-74
2023/12/07 06:39:52;;;;;;;0.10;0.10;;;;;;;;;;5092979;28;20043;-74
2023/12/07 06:42:18;;;;;;;0.10;0.10;;;;;;;;;;5092618;28;20117;-74
2023/12/07 06:44:46;;;;;;;0.30;0.30;;;;;;;;;;5092665;28;20028;-74
2023/12/07 06:47:13;;;;;;;0.10;0.10;;;;;;;;;;5092537;28;20028;-76
2023/12/07 06:49:41;;;;;;;0.10;0.10;;;;;;;;;;5082468;28;20041;-72
2023/12/07 06:52:07;;;;;;;0.10;0.10;;;;;;;;;;5072165;28;20093;-77
2023/12/07 06:54:34;;;;;;;0.10;0.10;;;;;;;;;;5054027;28;20031;-75
2023/12/07 06:57:00;;;;;;;0.10;0.10;;;;;;;;;;5055445;28;20498;-76
2023/12/07 06:59:26;;;;;;;0.10;0.10;;;;;;;;;;5054687;28;20391;-77
2023/12/07 07:01:52;;;;;;;0.10;0.10;;;;;;;;;;5054466;28;20024;-76
2023/12/07 07:04:18;;;;;;;0.10;0.10;;;;;;;;;;5072315;28;20024;-77
2023/12/07 07:06:44;;;;;;;0.10;0.10;;;;;;;;;;5054434;28;20066;-77
2023/12/07 07:09:11;;;;;;;0.10;0.10;;;;;;;;;;5054249;28;20432;-77
2023/12/07 07:11:37;;;;;;;0.10;0.10;;;;;;;;;;5075659;28;20029;-72
2023/12/07 07:14:04;;;;;;;0.10;0.10;;;;;;;;;;5070668;28;20024;-72
2023/12/07 07:16:37;;;;;;;0.10;0.10;;;;;;;;;;5078108;28;20444;-74
2023/12/07 07:19:03;;;;;;;0.10;0.10;;;;;;;;;;5070858;28;20120;-76
2023/12/07 07:21:28;;;;;;;0.10;0.10;;;;;;;;;;5071111;28;20098;-74
2023/12/07 07:23:54;;;;;;;0.20;0.20;;;;;;;;;;5068618;28;20545;-76
2023/12/07 07:26:20;;;;;;;0.10;0.10;;;;;;;;;;5090920;28;20070;-75
2023/12/07 07:28:45;;;;;;;0.20;0.20;;;;;;;;;;5090954;28;20094;-75
2023/12/07 07:31:11;;;;;;;0.10;0.10;;;;;;;;;;5090542;28;20050;-76
2023/12/07 07:33:37;;;;;;;0.10;0.10;;;;;;;;;;5091266;28;20024;-73
2023/12/07 07:36:03;;;;;;;0.20;0.20;;;;;;;;;;5091026;28;20488;-75
2023/12/07 07:38:28;;;;;;;0.10;0.10;;;;;;;;;;5091332;28;20031;-76
2023/12/07 07:40:54;;;;;;;0.13;0.13;;;;;;;;;;5089536;28;20464;-73
2023/12/07 07:43:19;;;;;;;0.10;0.10;;;;;;;;;;5091488;28;20024;-74
2023/12/07 07:45:45;;;;;;;0.20;0.20;;;;;;;;;;5090265;28;20036;-75
2023/12/07 07:48:12;;;;;;;0.10;0.10;;;;;;;;;;5090489;28;20112;-76
2023/12/07 07:50:37;;;;;;;0.20;0.20;;;;;;;;;;5072775;28;20039;-76
2023/12/07 07:53:03;;;;;;;0.40;0.40;;;;;;;;;;5091011;28;20376;-74
2023/12/07 07:55:32;;;;;;;0.10;0.10;;;;;;;;;;5091294;28;20357;-73
2023/12/07 07:58:02;;;;;;;0.20;0.20;;;;;;;;;;5090397;28;20028;-74
2023/12/07 08:00:28;;;;;;;0.13;0.13;;;;;;;;;;5091391;28;20035;-76
2023/12/07 08:02:54;;;;;;;0.20;0.20;;;;;;;;;;5090448;28;20016;-71
2023/12/07 08:05:20;;;;;;;0.13;0.13;;;;;;;;;;5090153;28;20028;-76
2023/12/07 08:07:45;;;;;;;0.10;0.10;;;;;;;;;;5090193;28;20028;-75
2023/12/07 08:10:11;;;;;;;2.30;2.20;;;;;;;;;;5090587;28;20040;-75
2023/12/07 08:12:39;;;;;;;0.20;0.20;;;;;;;;;;5090775;28;20119;-76
2023/12/07 08:15:05;;;;;;;0.10;0.10;;;;;;;;;;5090390;28;20032;-76
2023/12/07 08:17:30;;;;;;;0.45;0.35;;;;;;;;;;5089867;28;20029;-75
2023/12/07 08:19:59;;;;;;;2.95;2.85;;;;;;;;;;5089600;28;20502;-75
2023/12/07 08:22:25;;;;;;;0.30;0.30;;;;;;;;;;5089873;28;20028;-76
2023/12/07 08:24:50;;;;;;;0.95;0.85;;;;;;;;;;5089585;28;20031;-76
2023/12/07 08:27:16;;;;;;;0.10;0.10;;;;;;;;;;5090320;28;20140;-76
2023/12/07 08:29:42;;;;;;;0.20;0.20;;;;;;;;;;5089304;28;20111;-75
2023/12/07 08:32:07;;;;;;;7.03;4.18;;;;;;;;;;5075959;28;20480;-75
2023/12/07 08:34:33;;;;;;;0.13;0.13;;;;;;;;;;5089737;28;20039;-76
2023/12/07 08:36:59;;;;;;;0.10;0.10;;;;;;;;;;5089596;28;20020;-76
2023/12/07 08:39:27;;;;;;;0.20;0.20;;;;;;;;;;5089784;28;20081;-70
2023/12/07 08:41:53;;;;;;;0.10;0.10;;;;;;;;;;5071634;28;20024;-73
2023/12/07 08:44:18;;;;;;;0.20;0.20;;;;;;;;;;5089968;28;20039;-74
2023/12/07 08:46:44;;;;;;;1.85;0.88;;;;;;;;;;5088940;28;20032;-75
2023/12/07 08:49:11;;;;;;;0.20;0.20;;;;;;;;;;5089261;28;20640;-76
2023/12/07 08:51:36;;;;;;;0.40;0.40;;;;;;;;;;5072043;28;20055;-76
2023/12/07 08:54:02;;;;;;;0.15;0.15;;;;;;;;;;5089294;28;20056;-75
2023/12/07 08:56:27;;;;;;;0.10;0.10;;;;;;;;;;5089778;28;20028;-74
2023/12/07 08:58:53;;;;;;;0.10;0.10;;;;;;;;;;5089508;28;20028;-75
2023/12/07 09:01:19;;;;;;;1.80;1.70;;;;;;;;;;5089613;28;20028;-74
2023/12/07 09:03:45;;;;;;;0.15;0.15;;;;;;;;;;5089596;28;20099;-72
2023/12/07 09:06:11;;;;;;;0.10;0.10;;;;;;;;;;5089572;28;20024;-74
2023/12/07 09:08:36;;;;;;;0.10;0.10;;;;;;;;;;5089075;28;20028;-73
2023/12/07 09:11:03;;;;;;;0.10;0.10;;;;;;;;;;5089256;28;20541;-74
2023/12/07 09:13:29;;;;;;;0.20;0.20;;;;;;;;;;5089174;28;20487;-74
2023/12/07 09:15:54;;;;;;;0.20;0.20;;;;;;;;;;5089145;28;20024;-74
2023/12/07 09:18:20;;;;;;;0.30;0.30;;;;;;;;;;5089205;28;20032;-75
2023/12/07 09:20:54;;;;;;;0.38;0.38;;;;;;;;;;5088949;28;20107;-74
2023/12/07 09:23:20;;;;;;;0.20;0.20;;;;;;;;;;5076556;28;20024;-73
2023/12/07 09:25:46;;;;;;;0.13;0.13;;;;;;;;;;5050758;28;20035;-74
2023/12/07 09:28:12;;;;;;;0.50;0.50;;;;;;;;;;5068132;28;20494;-75
2023/12/07 09:30:38;;;;;;;0.93;0.93;;;;;;;;;;5069092;28;20070;-75
2023/12/07 09:33:04;;;;;;;0.20;0.20;;;;;;;;;;5069197;28;20406;-75
2023/12/07 09:35:29;;;;;;;0.40;0.30;;;;;;;;;;5068889;28;20032;-75
2023/12/07 09:37:55;;;;;;;0.47;0.43;;;;;;;;;;5068324;28;20502;-71
2023/12/07 09:40:21;;;;;;;0.20;0.20;;;;;;;;;;5068646;28;20033;-75
2023/12/07 09:42:47;;;;;;;0.43;0.43;;;;;;;;;;5068408;28;20059;-74
2023/12/07 09:45:18;;;;;;;0.10;0.10;;;;;;;;;;5070650;28;20044;-75
2023/12/07 09:47:46;;;;;;;0.28;0.28;;;;;;;;;;5072730;28;20037;-74
2023/12/07 09:50:12;;;;;;;0.50;0.50;;;;;;;;;;5072417;28;20566;-75
2023/12/07 09:52:37;;;;;;;0.10;0.10;;;;;;;;;;5072749;28;20021;-72
2023/12/07 09:55:03;;;;;;;2.90;1.88;;;;;;;;;;5054647;28;20131;-75
2023/12/07 09:57:29;;;;;;;0.20;0.20;;;;;;;;;;5073134;28;20062;-73
2023/12/07 09:59:55;;;;;;;0.30;0.30;;;;;;;;;;5072462;28;20446;-74
2023/12/07 10:02:21;;;;;;;0.10;0.10;;;;;;;;;;5072529;28;20016;-74
2023/12/07 10:04:47;;;;;;;0.10;0.10;;;;;;;;;;5072175;28;20032;-75
2023/12/07 10:07:13;;;;;;;0.73;0.73;;;;;;;;;;5073050;28;20463;-74
2023/12/07 10:09:42;;;;;;;0.22;0.22;;;;;;;;;;5079810;28;20047;-73
2023/12/07 10:12:08;;;;;;;0.55;0.55;;;;;;;;;;5092609;28;20052;-75
2023/12/07 10:14:34;;;;;;;0.30;0.30;;;;;;;;;;5092753;28;20055;-75
2023/12/07 10:17:00;;;;;;;0.45;0.45;;;;;;;;;;5073606;28;20430;-75
2023/12/07 10:19:27;;;;;;;0.20;0.20;;;;;;;;;;5092472;28;20361;-74
2023/12/07 10:21:53;;;;;;;0.10;0.10;;;;;;;;;;5092457;28;20024;-73
2023/12/07 10:24:20;;;;;;;0.20;0.20;;;;;;;;;;5074357;28;20440;-75
2023/12/07 10:26:46;;;;;;;0.55;0.55;;;;;;;;;;5092022;28;20380;-74
2023/12/07 10:29:12;;;;;;;0.90;0.57;;;;;;;;;;5092853;28;20039;-74
2023/12/07 10:31:38;;;;;;;0.20;0.20;;;;;;;;;;5091739;28;20025;-74
2023/12/07 10:34:06;;;;;;;0.10;0.10;;;;;;;;;;5091756;28;20032;-74
2023/12/07 10:36:35;;;;;;;8.40;1.77;;;;;;;;;;5082016;28;20111;-73
2023/12/07 10:39:00;;;;;;;2.63;1.95;;;;;;;;;;5071161;28;20037;-74
2023/12/07 10:41:26;;;;;;;0.40;0.40;;;;;;;;;;5071963;28;20024;-73
2023/12/07 10:43:53;;;;;;;0.43;0.43;;;;;;;;;;5071484;28;20032;-72
2023/12/07 10:46:22;;;;;;;1.02;0.95;;;;;;;;;;5071641;28;20019;-74
2023/12/07 10:49:01;;;;;;;0.35;0.30;;;;;;;;;;5054694;28;20048;-74
2023/12/07 10:51:37;;;;;;;0.77;0.77;;;;;;;;;;5071882;28;20046;-74
2023/12/07 10:54:04;;;;;;;0.20;0.20;;;;;;;;;;5071747;28;20063;-73
2023/12/07 10:56:42;;;;;;;0.40;0.40;;;;;;;;;;5071290;28;20025;-75
2023/12/07 10:59:11;;;;;;;0.45;0.43;;;;;;;;;;5071321;28;20037;-75
2023/12/07 11:01:40;;;;;;;0.40;0.40;;;;;;;;;;5071648;28;20032;-75
2023/12/07 11:04:06;;;;;;;0.20;0.20;;;;;;;;;;5071529;28;20081;-75
2023/12/07 11:06:36;;;;;;;0.20;0.20;;;;;;;;;;5071284;28;20111;-75
2023/12/07 11:09:03;;;;;;;1.90;0.60;;;;;;;;;;5053232;28;20150;-74
2023/12/07 11:11:31;;;;;;;0.22;0.20;;;;;;;;;;5053077;28;20024;-75
2023/12/07 11:14:03;;;;;;;0.25;0.25;;;;;;;;;;5070985;28;20105;-75
2023/12/07 11:16:34;;;;;;;0.60;0.60;;;;;;;;;;5036775;28;20472;-75
2023/12/07 11:19:00;;;;;;;1.13;0.80;;;;;;;;;;5070908;28;20036;-74
2023/12/07 11:21:26;;;;;;;0.20;0.20;;;;;;;;;;5071002;28;20044;-72
2023/12/07 11:23:54;;;;;;;0.82;0.75;;;;;;;;;;5071021;28;20028;-74
2023/12/07 11:26:24;;;;;;;0.28;0.28;;;;;;;;;;5071354;28;20376;-74
2023/12/07 11:28:50;;;;;;;0.45;0.30;;;;;;;;;;5071584;28;20456;-74
2023/12/07 11:31:16;;;;;;;0.30;0.30;;;;;;;;;;5070872;28;20101;-74
2023/12/07 11:33:43;;;;;;;1.15;0.85;;;;;;;;;;5070794;28;20035;-74
2023/12/07 11:36:10;;;;;;;0.55;0.40;;;;;;;;;;5052917;28;20369;-74
2023/12/07 11:38:37;;;;;;;0.30;0.30;;;;;;;;;;5055650;28;20109;-74
2023/12/07 11:41:03;;;;;;;0.50;0.50;;;;;;;;;;5072237;28;20476;-73
2023/12/07 11:43:41;;;;;;;0.50;0.40;;;;;;;;;;5090858;28;20389;-74
2023/12/07 11:46:07;;;;;;;0.28;0.28;;;;;;;;;;5085473;28;20021;-73
2023/12/07 11:48:33;;;;;;;0.20;0.20;;;;;;;;;;5070014;28;20515;-75
2023/12/07 11:51:04;;;;;;;2.35;1.20;;;;;;;;;;5069209;28;20029;-73
2023/12/07 11:53:31;;;;;;;1.92;1.73;;;;;;;;;;5052792;28;20366;-74
2023/12/07 11:56:00;;;;;;;0.20;0.20;;;;;;;;;;5069544;28;20027;-74
2023/12/07 11:58:26;;;;;;;;;;;;;;;;;;5070802;28;20035;-75
2023/12/07 12:00:53;;;;;;;0.20;0.20;;;;;;;;;;5070305;28;19904;-74
2023/12/07 12:03:20;;;;;;;1.45;0.82;;;;;;;;;;5068945;28;20067;-73
2023/12/07 12:05:46;;;;;;;13.32;6.90;;;;;;;;;;5068245;28;20131;-73
2023/12/07 12:08:12;;;;;;;0.40;0.40;;;;;;;;;;5069560;28;20032;-74
2023/12/07 12:10:57;;;;;;;0.45;0.45;;;;;;;;;;5069434;28;20052;-74
2023/12/07 12:13:39;;;;;;;0.55;0.40;;;;;;;;;;5051842;28;20056;-73
2023/12/07 12:16:12;;;;;;;9.13;1.73;;;;;;;;;;5069739;28;20040;-75
2023/12/07 12:18:41;;;;;;;1.00;0.55;;;;;;;;;;5069820;28;20032;-73
2023/12/07 12:21:11;;;;;;;0.80;0.55;;;;;;;;;;5052071;28;20024;-73
2023/12/07 12:23:44;;;;;;;0.38;0.35;;;;;;;;;;5070275;28;20031;-74
2023/12/07 12:26:13;;;;;;;0.20;0.20;;;;;;;;;;5069077;28;20096;-74
2023/12/07 12:28:42;;;;;;;0.95;0.85;;;;;;;;;;5068430;28;20059;-74
2023/12/07 12:31:23;;;;;;;0.85;0.85;;;;;;;;;;5070057;28;20024;-75
2023/12/07 12:33:50;;;;;;;2.30;1.50;;;;;;;;;;5069617;28;20029;-73
2023/12/07 12:36:21;;;;;;;0.57;0.55;;;;;;;;;;5081474;28;20028;-74
2023/12/07 12:38:56;;;;;;;0.70;0.60;;;;;;;;;;5090153;28;20360;-73
2023/12/07 12:41:23;;;;;;;0.68;0.68;;;;;;;;;;5089671;28;20024;-74
2023/12/07 12:43:53;;;;;;;1.20;0.88;;;;;;;;;;5090067;28;20028;-74
2023/12/07 12:46:20;;;;;;;1.42;1.02;;;;;;;;;;5089505;28;20032;-73
2023/12/07 12:48:54;;;;;;;2.30;1.55;;;;;;;;;;5089617;28;20059;-72
2023/12/07 12:51:27;;;;;;;0.40;0.35;;;;;;;;;;5089987;28;20157;-75
2023/12/07 12:53:55;;;;;;;0.80;0.70;;;;;;;;;;5089927;28;20070;-74
2023/12/07 12:56:26;;;;;;;1.55;0.85;;;;;;;;;;5087314;28;20028;-74
2023/12/07 12:58:55;;;;;;;0.88;0.80;;;;;;;;;;5086350;28;20055;-74
2023/12/07 13:01:22;;;;;;;1.02;0.88;;;;;;;;;;5069789;28;20380;-74
2023/12/07 13:03:48;;;;;;;4.32;2.00;;;;;;;;;;5086410;28;20099;-73
2023/12/07 13:06:15;;;;;;;3.53;1.35;;;;;;;;;;5087835;28;20076;-73
2023/12/07 13:08:46;;;;;;;0.88;0.70;;;;;;;;;;5087240;28;20479;-73
2023/12/07 13:11:19;;;;;;;0.45;0.40;;;;;;;;;;5069101;28;20543;-73
2023/12/07 13:13:49;;;;;;;2.83;0.60;;;;;;;;;;5087197;28;20026;-73
2023/12/07 13:16:20;;;;;;;1.90;1.45;;;;;;;;;;5086638;28;21003;-73
2023/12/07 13:19:11;;;;;;;1.10;0.57;;;;;;;;;;5062377;28;20135;-73
2023/12/07 13:21:38;;;;;;;0.77;0.73;;;;;;;;;;5064974;28;20033;-73
2023/12/07 13:24:05;;;;;;;1.95;1.13;;;;;;;;;;5048257;28;20393;-73
2023/12/07 13:26:31;;;;;;;2.28;1.23;;;;;;;;;;5047839;28;20047;-73
2023/12/07 13:28:57;;;;;;;1.85;1.25;;;;;;;;;;5064729;28;20116;-72
2023/12/07 13:31:23;;;;;;;0.93;0.68;;;;;;;;;;5030837;28;20043;-72
2023/12/07 13:33:55;;;;;;;3.35;1.70;;;;;;;;;;5064944;28;20516;-72
2023/12/07 13:36:25;;;;;;;2.28;1.08;;;;;;;;;;5048075;28;20437;-72
2023/12/07 13:38:52;;;;;;;1.10;0.47;;;;;;;;;;5064557;28;20132;-73
2023/12/07 13:41:17;;;;;;;1.45;0.88;;;;;;;;;;5065005;28;20119;-73
2023/12/07 13:43:43;;;;;;;0.60;0.55;;;;;;;;;;5063721;28;20040;-71
2023/12/07 13:46:10;;;;;;;1.45;1.35;;;;;;;;;;5048065;28;20115;-74
2023/12/07 13:48:37;;;;;;;0.90;0.82;;;;;;;;;;5048207;28;20044;-72
2023/12/07 13:51:04;;;;;;;1.38;0.68;;;;;;;;;;5087400;28;20099;-72
2023/12/07 13:53:30;;;;;;;2.28;1.10;;;;;;;;;;5087800;28;20098;-74
2023/12/07 13:55:56;;;;;;;0.77;0.65;;;;;;;;;;5086815;28;20479;-73
2023/12/07 13:58:22;;;;;;;1.60;0.75;;;;;;;;;;5087153;28;20039;-73
2023/12/07 14:00:51;;;;;;;2.83;1.52;;;;;;;;;;5087217;28;20099;-72
2023/12/07 14:03:22;;;;;;;2.75;1.70;;;;;;;;;;5087521;28;20028;-73
2023/12/07 14:05:49;;;;;;;2.45;1.77;;;;;;;;;;5087166;28;20017;-73
2023/12/07 14:08:15;;;;;;;0.50;0.47;;;;;;;;;;5087082;28;20032;-73
2023/12/07 14:10:42;;;;;;;1.92;1.13;;;;;;;;;;5087337;28;20056;-72
2023/12/07 14:13:09;;;;;;;0.75;0.75;;;;;;;;;;5087503;28;20032;-73
2023/12/07 14:15:35;;;;;;;4.82;2.38;;;;;;;;;;5087229;28;20379;-73
2023/12/07 14:18:02;;;;;;;2.13;1.63;;;;;;;;;;5087230;28;20040;-73
2023/12/07 14:20:34;;;;;;;6.55;1.23;;;;;;;;;;5086683;28;20016;-73
2023/12/07 14:23:04;;;;;;;3.85;3.42;;;;;;;;;;5069454;28;20046;-72
2023/12/07 14:25:31;;;;;;;5.88;1.25;;;;;;;;;;5086993;28;20103;-72
2023/12/07 14:27:57;;;;;;;0.40;0.40;;;;;;;;;;5086866;28;20028;-72
2023/12/07 14:30:23;;;;;;;1.42;1.08;;;;;;;;;;5087809;28;20379;-72
2023/12/07 14:32:52;;;;;;;0.20;0.20;;;;;;;;;;5090107;28;20555;-73
2023/12/07 14:35:19;;;;;;;2.92;0.60;;;;;;;;;;5090457;28;20066;-73
2023/12/07 14:37:45;;;;;;;0.30;0.30;;;;;;;;;;5090622;28;20036;-73
2023/12/07 14:40:12;;;;;;;0.45;0.45;;;;;;;;;;5091002;28;20020;-73
2023/12/07 14:42:37;;;;;;;0.45;0.45;;;;;;;;;;5090898;28;20039;-73